Gobblers Point, Arkansas
Current Conditions -  °F | °C
As of 12:53 PM on Tuesday 27 Jan 2015 (Local Time) from KRUE Reporting Station
Clear Clear  
Wind Chill: 64°   Ceiling: Unl
Heat Index: 64°   Visibility: 10mi
Dew Point: 32°   Wind: 3mph
Humidity: 30%   Direction: NA
Pressure: 30.13"   Gusts: NA
Location:  35.3927°N, 92.8078°W
Report Text: KRUE 271853Z AUTO VRB03KT 10SM CLR 18/00 A3013 RMK AO2 SLP198 T01780000
Loading
Personal Weather Stations






























Interactive Weather Map New forecast layout! Learn more

10-Day Weather Forecast

Advertisements
Track Severe Weather on mobile